createdAt,value
2022-10-05T00:00:55.942Z,16.59
2022-10-05T00:03:26.808Z,16.59
2022-10-05T00:05:53.687Z,16.56
2022-10-05T00:08:23.685Z,16.60
2022-10-05T00:10:51.248Z,16.60
2022-10-05T00:13:25.540Z,16.55
2022-10-05T00:16:07.848Z,16.55
2022-10-05T00:18:37.377Z,16.58
2022-10-05T00:21:34.127Z,16.56
2022-10-05T00:24:01.491Z,16.52
2022-10-05T00:26:32.983Z,16.53
2022-10-05T00:29:02.611Z,16.52
2022-10-05T00:31:35.011Z,16.48
2022-10-05T00:34:02.203Z,16.36
2022-10-05T00:36:28.766Z,16.43
2022-10-05T00:38:55.538Z,16.45
2022-10-05T00:41:40.865Z,16.45
2022-10-05T00:44:28.563Z,16.44
2022-10-05T00:47:13.903Z,16.43
2022-10-05T00:49:40.425Z,16.43
2022-10-05T00:52:36.023Z,16.42
2022-10-05T00:55:37.584Z,16.41
2022-10-05T00:58:48.039Z,16.40
2022-10-05T01:01:14.570Z,16.38
2022-10-05T01:04:20.632Z,16.37
2022-10-05T01:07:23.498Z,16.37
2022-10-05T01:10:11.679Z,16.36
2022-10-05T01:12:38.147Z,16.35
2022-10-05T01:15:33.814Z,16.32
2022-10-05T01:18:25.318Z,16.32
2022-10-05T01:21:04.262Z,16.30
2022-10-05T01:23:52.166Z,16.29
2022-10-05T01:26:46.518Z,16.30
2022-10-05T01:29:25.378Z,16.11
2022-10-05T01:32:14.316Z,16.27
2022-10-05T01:34:53.507Z,16.26
2022-10-05T01:37:29.289Z,16.24
2022-10-05T01:40:19.792Z,16.24
2022-10-05T01:43:01.232Z,16.22
2022-10-05T01:46:22.326Z,16.21
2022-10-05T01:48:54.711Z,16.21
2022-10-05T01:51:33.394Z,16.21
2022-10-05T01:54:11.301Z,16.16
2022-10-05T01:56:59.216Z,16.15
2022-10-05T01:59:34.487Z,16.18
2022-10-05T02:02:07.694Z,16.15
2022-10-05T02:05:01.625Z,16.14
2022-10-05T02:07:50.631Z,16.12
2022-10-05T02:10:31.007Z,16.06
2022-10-05T02:13:14.536Z,16.02
2022-10-05T02:15:49.883Z,16.06
2022-10-05T02:18:21.343Z,16.06
2022-10-05T02:20:51.269Z,16.04
2022-10-05T02:23:25.859Z,16.04
2022-10-05T02:25:55.232Z,16.03
2022-10-05T02:28:32.232Z,16.01
2022-10-05T02:31:15.136Z,15.96
2022-10-05T02:33:41.971Z,15.99
2022-10-05T02:36:16.005Z,15.83
2022-10-05T02:39:06.864Z,15.99
2022-10-05T02:42:07.456Z,15.98
2022-10-05T02:44:54.476Z,15.97
2022-10-05T02:47:59.755Z,15.95
2022-10-05T02:50:50.036Z,15.92
2022-10-05T02:53:28.548Z,15.89
2022-10-05T02:56:14.003Z,15.85
2022-10-05T02:59:11.072Z,15.85
2022-10-05T03:01:48.441Z,15.55
2022-10-05T03:04:46.831Z,15.82
2022-10-05T03:07:25.001Z,15.72
2022-10-05T03:09:51.462Z,15.82
2022-10-05T03:12:45.984Z,15.82
2022-10-05T03:15:42.584Z,15.83
2022-10-05T03:18:57.196Z,15.85
2022-10-05T03:22:01.832Z,15.84
2022-10-05T03:24:46.907Z,15.82
2022-10-05T03:27:49.029Z,15.82
2022-10-05T03:30:21.855Z,15.80
2022-10-05T03:33:11.022Z,15.83
2022-10-05T03:35:43.623Z,15.80
2022-10-05T03:38:28.770Z,15.80
2022-10-05T03:41:13.303Z,15.77
2022-10-05T03:43:42.493Z,15.75
2022-10-05T03:46:18.818Z,15.77
2022-10-05T03:49:22.527Z,15.70
2022-10-05T03:51:55.795Z,15.75
2022-10-05T03:54:32.851Z,15.70
2022-10-05T03:57:12.057Z,15.72
2022-10-05T03:59:57.048Z,15.75
2022-10-05T04:02:33.224Z,15.76
2022-10-05T04:05:17.343Z,15.75
2022-10-05T04:08:15.694Z,15.75
2022-10-05T04:10:48.376Z,15.70
2022-10-05T04:13:27.286Z,15.70
2022-10-05T04:16:06.133Z,15.77
2022-10-05T04:18:38.434Z,15.77
2022-10-05T04:21:23.706Z,15.77
2022-10-05T04:24:00.070Z,15.78
2022-10-05T04:26:43.767Z,15.78
2022-10-05T04:29:25.090Z,15.76
2022-10-05T04:32:16.105Z,15.76
2022-10-05T04:35:10.007Z,15.75
2022-10-05T04:37:50.265Z,15.76
2022-10-05T04:40:25.810Z,15.75
2022-10-05T04:43:13.455Z,15.66
2022-10-05T04:46:15.895Z,15.72
2022-10-05T04:49:12.726Z,15.73
2022-10-05T04:51:51.440Z,15.61
2022-10-05T04:54:55.481Z,15.72
2022-10-05T04:57:34.495Z,15.72
2022-10-05T05:00:19.396Z,15.72
2022-10-05T05:03:18.694Z,15.70
2022-10-05T05:06:22.871Z,15.69
2022-10-05T05:08:58.516Z,15.69
2022-10-05T05:11:28.918Z,15.68
2022-10-05T05:14:22.903Z,15.66
2022-10-05T05:17:09.650Z,15.66
2022-10-05T05:19:51.438Z,15.66
2022-10-05T05:22:24.714Z,15.65
2022-10-05T05:25:02.358Z,15.65
2022-10-05T05:27:47.036Z,15.61
2022-10-05T05:30:51.533Z,15.64
2022-10-05T05:33:46.646Z,15.64
2022-10-05T05:36:22.195Z,15.63
2022-10-05T05:39:07.654Z,15.63
2022-10-05T05:41:39.617Z,15.64
2022-10-05T05:44:26.093Z,15.64
2022-10-05T05:47:05.036Z,15.63
2022-10-05T05:49:48.821Z,15.64
2022-10-05T05:52:32.172Z,15.46
2022-10-05T05:55:04.714Z,15.63
2022-10-05T05:57:38.645Z,15.61
2022-10-05T06:00:26.409Z,15.64
2022-10-05T06:03:14.853Z,15.66
2022-10-05T06:05:52.631Z,15.65
2022-10-05T06:08:35.937Z,15.68
2022-10-05T06:11:09.848Z,15.70
2022-10-05T06:13:42.322Z,15.69
2022-10-05T06:16:19.301Z,15.71
2022-10-05T06:18:54.759Z,15.65
2022-10-05T06:21:50.601Z,15.73
2022-10-05T06:25:02.483Z,15.73
2022-10-05T06:27:39.228Z,15.74
2022-10-05T06:30:07.919Z,15.74
2022-10-05T06:32:46.632Z,15.73
2022-10-05T06:35:29.396Z,15.69
2022-10-05T06:38:23.447Z,15.75
2022-10-05T06:41:31.890Z,15.78
2022-10-05T06:44:08.482Z,15.69
2022-10-05T06:46:43.861Z,15.85
2022-10-05T06:49:18.040Z,15.88
2022-10-05T06:52:02.586Z,15.88
2022-10-05T06:54:39.806Z,15.88
2022-10-05T06:57:41.874Z,15.95
2022-10-05T07:00:20.979Z,15.98
2022-10-05T07:02:56.408Z,16.03
2022-10-05T07:05:42.725Z,16.01
2022-10-05T07:08:30.596Z,16.06
2022-10-05T07:11:13.830Z,16.08
2022-10-05T07:14:03.377Z,16.07
2022-10-05T07:16:42.010Z,16.09
2022-10-05T07:19:30.484Z,16.06
2022-10-05T07:22:15.853Z,16.12
2022-10-05T07:24:58.228Z,16.11
2022-10-05T07:27:29.226Z,16.07
2022-10-05T07:30:04.712Z,16.16
2022-10-05T07:33:02.848Z,16.19
2022-10-05T07:36:09.844Z,16.27
2022-10-05T07:38:44.989Z,16.36
2022-10-05T07:41:29.693Z,16.36
2022-10-05T07:44:08.872Z,16.44
2022-10-05T07:46:50.428Z,16.21
2022-10-05T07:49:54.585Z,16.60
2022-10-05T07:52:38.854Z,16.66
2022-10-05T07:55:18.049Z,16.69
2022-10-05T07:58:04.809Z,16.78
2022-10-05T08:00:48.936Z,16.84
2022-10-05T08:03:38.343Z,16.92
2022-10-05T08:06:09.316Z,16.94
2022-10-05T08:08:35.885Z,17.07
2022-10-05T08:11:13.589Z,17.17
2022-10-05T08:13:53.386Z,17.29
2022-10-05T08:16:26.586Z,17.43
2022-10-05T08:19:00.183Z,17.48
2022-10-05T08:21:36.361Z,17.61
2022-10-05T08:24:11.134Z,17.72
2022-10-05T08:27:02.557Z,17.81
2022-10-05T08:29:40.035Z,17.87
2022-10-05T08:32:17.075Z,17.67
2022-10-05T08:35:12.932Z,17.98
2022-10-05T08:37:44.219Z,18.03
2022-10-05T08:40:52.903Z,18.16
2022-10-05T08:43:50.440Z,18.31
2022-10-05T08:46:42.618Z,18.40
2022-10-05T08:49:32.836Z,18.53
2022-10-05T08:52:10.565Z,18.68
2022-10-05T08:55:11.320Z,18.79
2022-10-05T08:58:03.936Z,18.94
2022-10-05T09:00:37.389Z,19.06
2022-10-05T09:03:32.150Z,19.04
2022-10-05T09:06:22.258Z,19.38
2022-10-05T09:09:26.600Z,19.59
2022-10-05T09:12:23.473Z,19.68
2022-10-05T09:15:35.267Z,19.71
2022-10-05T09:18:16.279Z,19.64
2022-10-05T09:20:53.153Z,19.58
2022-10-05T09:23:37.084Z,19.61
2022-10-05T09:26:12.527Z,19.61
2022-10-05T09:29:07.140Z,19.63
2022-10-05T09:31:55.291Z,19.63
2022-10-05T09:34:39.683Z,19.67
2022-10-05T09:37:26.138Z,19.71
2022-10-05T09:40:11.046Z,19.86
2022-10-05T09:42:54.299Z,19.90
2022-10-05T09:45:58.253Z,19.97
2022-10-05T09:48:46.143Z,20.03
2022-10-05T09:51:31.336Z,20.06
2022-10-05T09:54:23.026Z,20.32
2022-10-05T09:57:14.440Z,20.38
2022-10-05T09:59:56.214Z,20.55
2022-10-05T10:02:56.468Z,20.64
2022-10-05T10:05:47.155Z,20.57
2022-10-05T10:08:29.814Z,20.57
2022-10-05T10:11:18.322Z,20.67
2022-10-05T10:14:09.383Z,20.66
2022-10-05T10:16:57.883Z,20.67
2022-10-05T10:19:48.679Z,20.84
2022-10-05T10:22:24.281Z,20.87
2022-10-05T10:25:18.982Z,20.85
2022-10-05T10:27:52.354Z,20.96
2022-10-05T10:30:45.180Z,21.10
2022-10-05T10:33:44.017Z,21.17
2022-10-05T10:36:19.789Z,21.16
2022-10-05T10:39:08.936Z,21.13
2022-10-05T10:41:41.721Z,21.26
2022-10-05T10:44:32.979Z,21.36
2022-10-05T10:47:27.893Z,21.51
2022-10-05T10:50:14.047Z,21.60
2022-10-05T10:53:09.937Z,21.44
2022-10-05T10:55:52.029Z,21.34
2022-10-05T10:58:56.307Z,21.33
2022-10-05T11:01:38.684Z,21.29
2022-10-05T11:04:17.370Z,21.31
2022-10-05T11:06:52.904Z,21.30
2022-10-05T11:09:40.882Z,21.32
2022-10-05T11:12:35.207Z,21.18
2022-10-05T11:15:29.461Z,21.14
2022-10-05T11:17:58.846Z,21.15
2022-10-05T11:20:39.945Z,21.17
2022-10-05T11:23:24.909Z,21.23
2022-10-05T11:26:26.431Z,21.31
2022-10-05T11:29:17.283Z,21.40
2022-10-05T11:32:15.910Z,21.53
2022-10-05T11:35:27.444Z,21.73
2022-10-05T11:38:15.815Z,21.84
2022-10-05T11:41:33.985Z,21.86
2022-10-05T11:44:25.628Z,21.95
2022-10-05T11:47:13.092Z,22.00
2022-10-05T11:50:16.353Z,22.07
2022-10-05T11:52:52.299Z,21.70
2022-10-05T11:55:32.153Z,21.91
2022-10-05T11:58:07.487Z,22.04
2022-10-05T12:00:44.982Z,22.15
2022-10-05T12:03:11.664Z,22.13
2022-10-05T12:05:52.793Z,22.08
2022-10-05T12:09:07.520Z,22.47
2022-10-05T12:11:58.099Z,22.56
2022-10-05T12:14:33.739Z,22.73
2022-10-05T12:17:10.410Z,22.86
2022-10-05T12:19:45.773Z,22.75
2022-10-05T12:22:21.709Z,22.84
2022-10-05T12:25:03.148Z,22.86
2022-10-05T12:27:39.276Z,22.91
2022-10-05T12:30:18.525Z,22.97
2022-10-05T12:33:02.223Z,23.00
2022-10-05T12:35:48.163Z,23.03
2022-10-05T12:38:28.695Z,22.95
2022-10-05T12:41:17.160Z,23.03
2022-10-05T12:43:53.865Z,23.01
2022-10-05T12:46:46.746Z,22.92
2022-10-05T12:49:22.175Z,23.06
2022-10-05T12:52:01.753Z,23.00
2022-10-05T12:54:46.610Z,23.19
2022-10-05T12:57:40.970Z,23.05
2022-10-05T13:00:20.415Z,22.83
2022-10-05T13:02:52.951Z,22.72
2022-10-05T13:05:24.884Z,22.76
2022-10-05T13:08:06.286Z,22.75
2022-10-05T13:10:51.264Z,22.81
2022-10-05T13:13:41.639Z,22.77
2022-10-05T13:16:36.392Z,22.81
2022-10-05T13:19:39.309Z,22.85
2022-10-05T13:22:51.298Z,22.73
2022-10-05T13:25:17.975Z,22.69
2022-10-05T13:28:07.395Z,22.61
2022-10-05T13:30:37.427Z,22.66
2022-10-05T13:33:20.810Z,22.63
2022-10-05T13:35:59.136Z,22.54
2022-10-05T13:38:51.704Z,22.44
2022-10-05T13:41:30.348Z,22.44
2022-10-05T13:44:16.665Z,22.41
2022-10-05T13:46:53.685Z,22.51
2022-10-05T13:49:37.047Z,22.51
2022-10-05T13:52:46.031Z,22.52
2022-10-05T13:55:21.924Z,22.44
2022-10-05T13:58:06.039Z,22.37
2022-10-05T14:00:41.613Z,22.33
2022-10-05T14:03:32.485Z,22.31
2022-10-05T14:06:01.511Z,22.25
2022-10-05T14:08:32.309Z,22.26
2022-10-05T14:11:03.040Z,22.32
2022-10-05T14:13:44.273Z,22.09
2022-10-05T14:16:13.877Z,22.09
2022-10-05T14:19:04.272Z,22.01
2022-10-05T14:21:32.764Z,22.00
2022-10-05T14:24:32.068Z,22.04
2022-10-05T14:27:52.230Z,21.98
2022-10-05T14:30:25.784Z,21.87
2022-10-05T14:33:00.604Z,21.85
2022-10-05T14:35:54.744Z,21.82
2022-10-05T14:38:31.370Z,21.81
2022-10-05T14:41:19.461Z,21.57
2022-10-05T14:43:58.267Z,21.57
2022-10-05T14:46:29.904Z,21.66
2022-10-05T14:49:21.532Z,21.62
2022-10-05T14:51:49.845Z,21.64
2022-10-05T14:54:25.510Z,21.54
2022-10-05T14:57:04.124Z,21.39
2022-10-05T14:59:46.809Z,21.16
2022-10-05T15:02:40.166Z,21.07
2022-10-05T15:05:25.001Z,21.07
2022-10-05T15:07:57.269Z,21.01
2022-10-05T15:10:29.832Z,20.83
2022-10-05T15:13:11.640Z,20.69
2022-10-05T15:15:49.986Z,20.57
2022-10-05T15:18:43.986Z,20.50
2022-10-05T15:21:30.415Z,20.42
2022-10-05T15:24:13.307Z,20.34
2022-10-05T15:26:53.934Z,20.23
2022-10-05T15:29:38.920Z,20.21
2022-10-05T15:32:34.452Z,20.24
2022-10-05T15:35:14.107Z,20.22
2022-10-05T15:37:44.636Z,20.20
2022-10-05T15:40:45.748Z,20.15
2022-10-05T15:43:20.083Z,20.11
2022-10-05T15:46:07.601Z,20.02
2022-10-05T15:49:08.398Z,19.99
2022-10-05T15:51:50.795Z,19.90
2022-10-05T15:54:54.912Z,19.89
2022-10-05T15:57:32.924Z,19.80
2022-10-05T16:00:19.065Z,19.77
2022-10-05T16:03:08.711Z,19.73
2022-10-05T16:05:56.849Z,19.69
2022-10-05T16:08:49.213Z,19.65
2022-10-05T16:11:30.046Z,19.59
2022-10-05T16:14:22.390Z,19.62
2022-10-05T16:17:11.665Z,19.57
2022-10-05T16:20:03.291Z,19.53
2022-10-05T16:22:43.391Z,19.50
2022-10-05T16:25:31.673Z,19.47
2022-10-05T16:28:22.708Z,19.43
2022-10-05T16:30:58.888Z,19.40
2022-10-05T16:33:33.885Z,19.36
2022-10-05T16:36:16.391Z,19.34
2022-10-05T16:39:05.728Z,19.32
2022-10-05T16:42:14.118Z,19.30
2022-10-05T16:44:56.067Z,19.24
2022-10-05T16:47:27.626Z,19.24
2022-10-05T16:50:33.385Z,19.21
2022-10-05T16:53:21.354Z,19.17
2022-10-05T16:55:55.626Z,19.16
2022-10-05T16:58:28.331Z,19.15
2022-10-05T17:01:22.667Z,19.11
2022-10-05T17:03:54.071Z,19.11
2022-10-05T17:07:08.534Z,19.10
2022-10-05T17:10:15.071Z,19.08
2022-10-05T17:12:56.740Z,19.03
2022-10-05T17:15:32.623Z,19.05
2022-10-05T17:18:28.462Z,19.03
2022-10-05T17:21:03.404Z,19.03
2022-10-05T17:23:56.637Z,19.01
2022-10-05T17:26:23.097Z,19.00
2022-10-05T17:29:00.320Z,19.01
2022-10-05T17:31:31.979Z,18.99
2022-10-05T17:34:16.813Z,18.99
2022-10-05T17:36:51.314Z,18.99
2022-10-05T17:39:21.442Z,18.98
2022-10-05T17:41:48.577Z,18.80
2022-10-05T17:44:21.351Z,18.99
2022-10-05T17:46:49.093Z,18.97
2022-10-05T17:49:18.370Z,18.96
2022-10-05T17:52:03.451Z,18.96
2022-10-05T17:54:50.800Z,18.88
2022-10-05T17:57:27.912Z,18.93
2022-10-05T17:59:57.245Z,18.93
2022-10-05T18:02:38.542Z,18.93
2022-10-05T18:05:20.718Z,18.76
2022-10-05T18:08:07.996Z,18.93
2022-10-05T18:10:37.850Z,18.93
2022-10-05T18:13:43.876Z,18.91
2022-10-05T18:16:10.821Z,18.91
2022-10-05T18:18:43.679Z,18.92
2022-10-05T18:21:20.510Z,18.92
2022-10-05T18:23:52.978Z,18.92
2022-10-05T18:26:37.772Z,18.92
2022-10-05T18:29:39.141Z,18.93
2022-10-05T18:32:34.979Z,18.92
2022-10-05T18:35:14.751Z,18.91
2022-10-05T18:37:53.440Z,18.90
2022-10-05T18:40:38.406Z,18.90
2022-10-05T18:43:26.748Z,18.90
2022-10-05T18:45:56.386Z,18.89
2022-10-05T18:48:48.402Z,18.88
2022-10-05T18:51:48.370Z,18.89
2022-10-05T18:54:29.936Z,18.90
2022-10-05T18:57:00.946Z,18.89
2022-10-05T18:59:38.457Z,18.90
2022-10-05T19:02:36.479Z,18.90
2022-10-05T19:05:47.913Z,18.91
2022-10-05T19:08:21.901Z,18.89
2022-10-05T19:10:56.572Z,18.77
2022-10-05T19:14:17.606Z,18.84
2022-10-05T19:16:47.005Z,18.85
2022-10-05T19:19:39.619Z,18.85
2022-10-05T19:22:47.937Z,18.83
2022-10-05T19:25:58.796Z,18.78
2022-10-05T19:28:34.997Z,18.74
2022-10-05T19:31:18.023Z,18.54
2022-10-05T19:33:47.602Z,18.67
2022-10-05T19:36:31.967Z,18.62
2022-10-05T19:39:17.245Z,18.59
2022-10-05T19:42:16.309Z,18.55
2022-10-05T19:44:57.940Z,18.52
2022-10-05T19:48:02.189Z,18.48
2022-10-05T19:50:31.499Z,18.38
2022-10-05T19:53:17.159Z,18.32
2022-10-05T19:55:47.148Z,18.35
2022-10-05T19:58:19.484Z,18.25
2022-10-05T20:00:54.527Z,18.25
2022-10-05T20:03:32.397Z,18.26
2022-10-05T20:06:03.156Z,18.22
2022-10-05T20:08:45.120Z,18.22
2022-10-05T20:11:16.764Z,18.21
2022-10-05T20:13:49.624Z,18.19
2022-10-05T20:16:34.748Z,18.14
2022-10-05T20:19:47.462Z,18.11
2022-10-05T20:22:46.509Z,18.04
2022-10-05T20:25:18.902Z,18.08
2022-10-05T20:27:51.306Z,18.09
2022-10-05T20:30:23.216Z,18.00
2022-10-05T20:32:51.464Z,18.04
2022-10-05T20:35:21.625Z,18.07
2022-10-05T20:37:50.713Z,18.07
2022-10-05T20:40:19.221Z,18.05
2022-10-05T20:42:46.700Z,18.03
2022-10-05T20:45:14.173Z,18.07
2022-10-05T20:47:42.160Z,18.06
2022-10-05T20:50:10.528Z,18.07
2022-10-05T20:52:37.677Z,18.06
2022-10-05T20:55:09.933Z,18.05
2022-10-05T20:57:41.531Z,17.96
2022-10-05T21:00:12.789Z,18.04
2022-10-05T21:02:39.753Z,18.01
2022-10-05T21:05:07.735Z,17.97
2022-10-05T21:07:36.943Z,17.98
2022-10-05T21:10:04.880Z,17.95
2022-10-05T21:12:32.766Z,17.94
2022-10-05T21:14:59.932Z,17.92
2022-10-05T21:17:26.486Z,17.89
2022-10-05T21:19:53.020Z,17.86
2022-10-05T21:22:19.619Z,17.78
2022-10-05T21:24:46.139Z,17.78
2022-10-05T21:27:12.677Z,17.71
2022-10-05T21:29:41.283Z,17.62
2022-10-05T21:32:11.473Z,17.56
2022-10-05T21:34:39.196Z,17.47
2022-10-05T21:37:05.787Z,17.42
2022-10-05T21:39:33.628Z,17.41
2022-10-05T21:42:02.624Z,17.35
2022-10-05T21:44:31.390Z,17.25
2022-10-05T21:47:04.312Z,17.26
2022-10-05T21:49:31.218Z,17.20
2022-10-05T21:52:00.842Z,17.19
2022-10-05T21:54:28.665Z,17.15
2022-10-05T21:56:57.375Z,17.12
2022-10-05T21:59:31.284Z,17.08
2022-10-05T22:02:00.042Z,17.04
2022-10-05T22:04:26.638Z,16.98
2022-10-05T22:06:54.644Z,16.73
2022-10-05T22:09:21.233Z,16.92
2022-10-05T22:11:48.430Z,16.82
2022-10-05T22:14:17.728Z,16.79
2022-10-05T22:16:47.339Z,16.55
2022-10-05T22:19:18.088Z,16.61
2022-10-05T22:21:44.685Z,16.60
2022-10-05T22:24:14.102Z,16.51
2022-10-05T22:26:43.875Z,16.37
2022-10-05T22:29:10.519Z,16.31
2022-10-05T22:31:37.925Z,16.24
2022-10-05T22:34:04.803Z,16.19
2022-10-05T22:36:33.471Z,16.06
2022-10-05T22:39:02.456Z,16.04
2022-10-05T22:41:29.027Z,15.98
2022-10-05T22:43:57.939Z,15.88
2022-10-05T22:46:24.496Z,15.78
2022-10-05T22:48:51.343Z,15.81
2022-10-05T22:51:17.935Z,15.75
2022-10-05T22:53:46.752Z,15.67
2022-10-05T22:56:16.667Z,15.66
2022-10-05T22:58:44.536Z,15.62
2022-10-05T23:01:13.946Z,15.57
2022-10-05T23:03:40.926Z,15.38
2022-10-05T23:06:16.714Z,15.46
2022-10-05T23:08:44.428Z,15.46
2022-10-05T23:11:16.607Z,15.42
2022-10-05T23:13:45.379Z,15.37
2022-10-05T23:16:17.903Z,15.31
2022-10-05T23:18:46.912Z,15.28
2022-10-05T23:21:17.244Z,15.22
2022-10-05T23:23:48.966Z,15.19
2022-10-05T23:26:17.231Z,15.07
2022-10-05T23:28:47.488Z,15.09
2022-10-05T23:31:16.853Z,15.06
2022-10-05T23:33:43.967Z,15.03
2022-10-05T23:36:19.417Z,15.03
2022-10-05T23:38:46.467Z,14.98
2022-10-05T23:41:13.601Z,14.95
2022-10-05T23:43:43.285Z,14.96
2022-10-05T23:46:12.526Z,14.97
2022-10-05T23:48:39.543Z,14.97
2022-10-05T23:51:11.162Z,14.97
2022-10-05T23:53:40.253Z,14.93
2022-10-05T23:56:07.131Z,14.88
2022-10-05T23:58:33.717Z,14.77
